createdAt,value
2022-08-04T00:00:11.124Z,60.94
2022-08-04T00:03:02.576Z,60.23
2022-08-04T00:05:31.027Z,60.02
2022-08-04T00:08:22.078Z,60.31
2022-08-04T00:10:55.060Z,60.43
2022-08-04T00:13:27.639Z,60.64
2022-08-04T00:15:58.966Z,62.12
2022-08-04T00:18:33.389Z,62.70
2022-08-04T00:21:05.452Z,62.51
2022-08-04T00:24:11.539Z,62.17
2022-08-04T00:26:21.986Z,63.25
2022-08-04T00:28:49.127Z,63.14
2022-08-04T00:31:16.461Z,63.53
2022-08-04T00:33:46.332Z,63.09
2022-08-04T00:36:13.330Z,62.90
2022-08-04T00:38:44.183Z,64.14
2022-08-04T00:41:57.041Z,63.85
2022-08-04T00:44:54.807Z,64.81
2022-08-04T00:47:50.642Z,64.69
2022-08-04T00:50:41.412Z,65.47
2022-08-04T00:53:18.012Z,65.87
2022-08-04T00:56:12.265Z,65.84
2022-08-04T00:59:11.168Z,65.45
2022-08-04T01:01:51.610Z,65.13
2022-08-04T01:04:22.329Z,65.47
2022-08-04T01:07:15.049Z,65.30
2022-08-04T01:10:04.441Z,65.59
2022-08-04T01:12:49.278Z,65.17
2022-08-04T01:15:26.592Z,66.00
2022-08-04T01:18:02.082Z,65.09
2022-08-04T01:20:35.536Z,65.24
2022-08-04T01:23:22.791Z,64.79
2022-08-04T01:26:43.625Z,66.31
2022-08-04T01:29:14.916Z,66.13
2022-08-04T01:32:02.794Z,66.58
2022-08-04T01:34:42.265Z,65.77
2022-08-04T01:37:17.589Z,67.21
2022-08-04T01:40:13.315Z,66.31
2022-08-04T01:42:41.732Z,67.41
2022-08-04T01:45:13.729Z,67.04
2022-08-04T01:47:58.400Z,66.91
2022-08-04T01:50:27.967Z,67.07
2022-08-04T01:52:55.469Z,67.69
2022-08-04T01:55:23.338Z,67.15
2022-08-04T01:57:53.513Z,67.69
2022-08-04T02:00:22.884Z,67.66
2022-08-04T02:02:50.589Z,65.94
2022-08-04T02:05:22.095Z,66.85
2022-08-04T02:08:18.069Z,66.30
2022-08-04T02:10:59.751Z,67.21
2022-08-04T02:13:57.425Z,67.18
2022-08-04T02:16:40.179Z,66.80
2022-08-04T02:19:31.092Z,67.31
2022-08-04T02:22:07.035Z,67.20
2022-08-04T02:24:35.818Z,67.95
2022-08-04T02:27:04.945Z,68.52
2022-08-04T02:29:41.020Z,68.60
2022-08-04T02:32:15.463Z,68.92
2022-08-04T02:35:05.631Z,69.05
2022-08-04T02:37:33.473Z,68.55
2022-08-04T02:40:03.085Z,69.88
2022-08-04T02:42:30.728Z,69.85
2022-08-04T02:44:59.919Z,69.47
2022-08-04T02:48:28.733Z,69.11
2022-08-04T02:50:28.363Z,69.17
2022-08-04T02:52:58.413Z,69.91
2022-08-04T02:55:27.306Z,70.77
2022-08-04T02:57:56.450Z,69.95
2022-08-04T03:00:22.979Z,70.15
2022-08-04T03:03:06.235Z,70.17
2022-08-04T03:05:57.592Z,69.76
2022-08-04T03:08:37.166Z,69.83
2022-08-04T03:11:40.372Z,70.80
2022-08-04T03:14:10.382Z,69.35
2022-08-04T03:17:05.183Z,70.35
2022-08-04T03:19:43.773Z,70.36
2022-08-04T03:22:16.043Z,70.27
2022-08-04T03:25:01.695Z,70.08
2022-08-04T03:27:56.311Z,70.68
2022-08-04T03:30:53.591Z,72.03
2022-08-04T03:33:43.273Z,72.21
2022-08-04T03:36:31.548Z,72.23
2022-08-04T03:41:59.955Z,71.63
2022-08-04T03:44:53.054Z,71.91
2022-08-04T03:47:51.965Z,72.18
2022-08-04T03:50:46.639Z,71.59
2022-08-04T03:53:31.492Z,71.18
2022-08-04T03:56:16.727Z,72.64
2022-08-04T03:59:07.192Z,71.52
2022-08-04T04:02:02.659Z,72.36
2022-08-04T04:05:21.463Z,72.12
2022-08-04T04:08:03.974Z,72.04
2022-08-04T04:10:54.890Z,71.52
2022-08-04T04:13:44.339Z,71.88
2022-08-04T04:16:29.045Z,72.01
2022-08-04T04:19:28.352Z,72.00
2022-08-04T04:22:03.746Z,72.06
2022-08-04T04:24:37.095Z,72.11
2022-08-04T04:27:15.947Z,71.64
2022-08-04T04:30:02.872Z,71.76
2022-08-04T04:33:00.192Z,72.60
2022-08-04T04:35:35.495Z,71.73
2022-08-04T04:38:22.215Z,71.14
2022-08-04T04:41:06.533Z,71.54
2022-08-04T04:44:11.275Z,71.63
2022-08-04T04:46:46.068Z,70.69
2022-08-04T04:49:31.067Z,70.88
2022-08-04T04:52:08.788Z,70.32
2022-08-04T04:54:53.156Z,69.63
2022-08-04T04:57:54.789Z,69.40
2022-08-04T05:00:13.648Z,70.25
2022-08-04T05:03:17.483Z,69.22
2022-08-04T05:05:59.132Z,69.04
2022-08-04T05:08:45.162Z,68.04
2022-08-04T05:11:21.955Z,69.21
2022-08-04T05:14:35.875Z,68.53
2022-08-04T05:16:47.618Z,68.58
2022-08-04T05:19:55.610Z,67.77
2022-08-04T05:22:40.120Z,68.31
2022-08-04T05:25:32.543Z,67.94
2022-08-04T05:28:10.029Z,67.79
2022-08-04T05:30:51.381Z,67.59
2022-08-04T05:33:47.252Z,67.18
2022-08-04T05:36:29.364Z,67.28
2022-08-04T05:39:06.124Z,67.47
2022-08-04T05:41:45.835Z,67.77
2022-08-04T05:44:18.756Z,67.22
2022-08-04T05:46:53.961Z,66.56
2022-08-04T05:49:27.013Z,67.07
2022-08-04T05:51:58.384Z,67.21
2022-08-04T05:54:25.810Z,66.89
2022-08-04T05:56:54.092Z,67.39
2022-08-04T05:59:21.555Z,66.41
2022-08-04T06:01:55.338Z,66.26
2022-08-04T06:04:28.020Z,66.97
2022-08-04T06:06:55.321Z,65.66
2022-08-04T06:09:22.027Z,65.62
2022-08-04T06:12:02.122Z,65.59
2022-08-04T06:14:38.255Z,65.50
2022-08-04T06:18:33.887Z,65.03
2022-08-04T06:20:02.799Z,64.36
2022-08-04T06:22:44.729Z,63.93
2022-08-04T06:25:16.837Z,63.91
2022-08-04T06:27:44.282Z,64.06
2022-08-04T06:30:14.503Z,64.04
2022-08-04T06:32:48.049Z,62.95
2022-08-04T06:35:20.357Z,62.98
2022-08-04T06:37:48.183Z,62.46
2022-08-04T06:40:39.085Z,61.75
2022-08-04T06:43:07.839Z,62.42
2022-08-04T06:45:37.139Z,61.81
2022-08-04T06:48:06.316Z,61.59
2022-08-04T06:51:30.200Z,61.21
2022-08-04T06:53:22.696Z,61.28
2022-08-04T06:55:50.315Z,59.25
2022-08-04T06:58:19.092Z,58.89
2022-08-04T07:00:47.540Z,59.10
2022-08-04T07:03:16.459Z,58.80
2022-08-04T07:05:43.971Z,58.14
2022-08-04T07:08:11.840Z,58.51
2022-08-04T07:10:39.252Z,58.27
2022-08-04T07:13:07.501Z,57.30
2022-08-04T07:15:35.849Z,58.13
2022-08-04T07:18:04.761Z,56.16
2022-08-04T07:20:36.171Z,55.51
2022-08-04T07:23:07.759Z,54.42
2022-08-04T07:25:58.529Z,56.26
2022-08-04T07:28:26.468Z,54.42
2022-08-04T07:30:54.427Z,54.89
2022-08-04T07:33:22.712Z,54.51
2022-08-04T07:36:09.548Z,54.74
2022-08-04T07:38:48.129Z,54.42
2022-08-04T07:41:39.041Z,53.35
2022-08-04T07:44:06.918Z,54.25
2022-08-04T07:46:33.931Z,52.88
2022-08-04T07:49:04.176Z,52.68
2022-08-04T07:51:32.551Z,50.98
2022-08-04T07:54:00.474Z,51.05
2022-08-04T07:56:28.121Z,49.25
2022-08-04T07:58:55.365Z,45.43
2022-08-04T08:01:23.621Z,43.61
2022-08-04T08:03:52.699Z,40.34
2022-08-04T08:06:33.027Z,37.58
2022-08-04T08:09:12.469Z,37.84
2022-08-04T08:12:35.578Z,33.61
2022-08-04T08:14:36.402Z,32.87
2022-08-04T08:17:04.775Z,31.28
2022-08-04T08:19:33.521Z,30.49
2022-08-04T08:22:01.618Z,30.47
2022-08-04T08:24:30.272Z,30.57
2022-08-04T08:27:00.281Z,31.95
2022-08-04T08:29:29.424Z,32.74
2022-08-04T08:32:01.320Z,33.23
2022-08-04T08:34:29.413Z,28.38
2022-08-04T08:37:15.783Z,27.51
2022-08-04T08:39:58.126Z,26.86
2022-08-04T08:42:48.830Z,26.37
2022-08-04T08:45:37.217Z,25.24
2022-08-04T08:48:05.816Z,26.04
2022-08-04T08:50:42.444Z,25.24
2022-08-04T08:53:23.270Z,25.54
2022-08-04T08:56:30.983Z,25.36
2022-08-04T08:59:28.848Z,29.08
2022-08-04T09:02:19.498Z,28.44
2022-08-04T09:04:59.353Z,29.30
2022-08-04T09:07:40.991Z,33.08
2022-08-04T09:10:45.278Z,31.75
2022-08-04T09:13:21.346Z,32.48
2022-08-04T09:16:05.066Z,31.19
2022-08-04T09:18:42.447Z,33.01
2022-08-04T09:21:23.390Z,29.56
2022-08-04T09:24:41.396Z,25.44
2022-08-04T09:27:39.666Z,30.41
2022-08-04T09:30:10.335Z,27.72
2022-08-04T09:32:41.388Z,28.44
2022-08-04T09:35:34.721Z,30.67
2022-08-04T09:38:23.432Z,30.60
2022-08-04T09:41:20.652Z,28.08
2022-08-04T09:44:49.905Z,24.05
2022-08-04T09:47:09.093Z,25.43
2022-08-04T09:50:01.773Z,26.51
2022-08-04T09:52:42.945Z,28.83
2022-08-04T09:55:17.515Z,27.95
2022-08-04T09:57:49.914Z,28.47
2022-08-04T10:00:17.814Z,26.46
2022-08-04T10:02:50.276Z,26.43
2022-08-04T10:05:22.963Z,28.40
2022-08-04T10:08:17.280Z,28.80
2022-08-04T10:11:21.554Z,28.27
2022-08-04T10:13:56.718Z,29.22
2022-08-04T10:16:42.143Z,28.79
2022-08-04T10:19:25.801Z,30.38
2022-08-04T10:22:27.438Z,30.96
2022-08-04T10:25:37.531Z,28.98
2022-08-04T10:28:06.064Z,29.99
2022-08-04T10:30:38.458Z,29.63
2022-08-04T10:33:24.650Z,25.60
2022-08-04T10:36:00.188Z,25.37
2022-08-04T10:38:51.160Z,22.90
2022-08-04T10:41:39.501Z,19.06
2022-08-04T10:44:28.464Z,18.92
2022-08-04T10:47:08.140Z,19.25
2022-08-04T10:49:45.609Z,19.06
2022-08-04T10:52:55.149Z,20.04
2022-08-04T10:56:07.680Z,20.93
2022-08-04T10:58:48.685Z,19.73
2022-08-04T11:01:59.950Z,19.55
2022-08-04T11:04:30.548Z,18.28
2022-08-04T11:07:00.260Z,16.46
2022-08-04T11:09:28.979Z,18.03
2022-08-04T11:12:06.423Z,23.94
2022-08-04T11:14:46.892Z,25.81
2022-08-04T11:17:24.583Z,27.49
2022-08-04T11:20:12.390Z,28.76
2022-08-04T11:23:03.014Z,29.92
2022-08-04T11:25:51.976Z,30.20
2022-08-04T11:28:55.839Z,30.84
2022-08-04T11:31:39.537Z,30.71
2022-08-04T11:34:20.753Z,31.11
2022-08-04T11:37:25.287Z,31.12
2022-08-04T11:40:25.568Z,32.19
2022-08-04T11:42:57.209Z,32.55
2022-08-04T11:45:51.024Z,31.86
2022-08-04T11:48:29.899Z,32.09
2022-08-04T11:50:59.075Z,31.70
2022-08-04T11:53:36.350Z,32.49
2022-08-04T11:56:11.048Z,31.94
2022-08-04T11:58:38.580Z,31.73
2022-08-04T12:01:25.652Z,30.95
2022-08-04T12:04:36.569Z,31.54
2022-08-04T12:07:46.602Z,32.58
2022-08-04T12:10:41.551Z,33.53
2022-08-04T12:13:33.968Z,32.84
2022-08-04T12:16:15.707Z,33.48
2022-08-04T12:18:48.278Z,32.81
2022-08-04T12:21:28.047Z,33.05
2022-08-04T12:24:00.775Z,33.96
2022-08-04T12:26:32.582Z,33.29
2022-08-04T12:29:11.185Z,35.02
2022-08-04T12:31:58.375Z,36.89
2022-08-04T12:34:45.520Z,36.66
2022-08-04T12:37:48.305Z,35.79
2022-08-04T12:40:30.137Z,37.10
2022-08-04T12:43:10.439Z,36.02
2022-08-04T12:45:44.702Z,34.70
2022-08-04T12:48:20.730Z,34.73
2022-08-04T12:50:54.026Z,34.32
2022-08-04T12:53:31.816Z,34.43
2022-08-04T12:56:02.361Z,34.62
2022-08-04T12:58:42.306Z,35.09
2022-08-04T13:02:06.930Z,36.04
2022-08-04T13:04:17.991Z,35.89
2022-08-04T13:06:51.803Z,36.21
2022-08-04T13:09:23.447Z,34.35
2022-08-04T13:12:02.524Z,36.19
2022-08-04T13:14:38.323Z,35.97
2022-08-04T13:17:06.539Z,36.83
2022-08-04T13:19:41.434Z,36.21
2022-08-04T13:22:09.004Z,37.37
2022-08-04T13:24:56.304Z,36.71
2022-08-04T13:27:25.017Z,36.60
2022-08-04T13:30:00.412Z,37.67
2022-08-04T13:32:32.259Z,32.99
2022-08-04T13:35:02.324Z,34.01
2022-08-04T13:37:36.926Z,33.33
2022-08-04T13:40:06.507Z,33.78
2022-08-04T13:42:35.780Z,35.56
2022-08-04T13:45:06.477Z,35.16
2022-08-04T13:47:37.218Z,35.13
2022-08-04T13:50:17.458Z,35.06
2022-08-04T13:52:45.195Z,35.93
2022-08-04T13:55:26.846Z,36.76
2022-08-04T13:57:58.756Z,36.49
2022-08-04T14:00:36.761Z,36.60
2022-08-04T14:03:19.194Z,37.05
2022-08-04T14:06:18.145Z,36.99
2022-08-04T14:08:51.078Z,36.49
2022-08-04T14:11:21.100Z,36.95
2022-08-04T14:14:32.478Z,36.99
2022-08-04T14:17:20.922Z,36.77
2022-08-04T14:19:50.108Z,38.26
2022-08-04T14:22:25.850Z,39.67
2022-08-04T14:25:16.609Z,37.84
2022-08-04T14:27:45.449Z,36.55
2022-08-04T14:30:27.696Z,34.77
2022-08-04T14:34:00.696Z,35.78
2022-08-04T14:36:04.173Z,36.24
2022-08-04T14:38:57.350Z,36.95
2022-08-04T14:41:31.588Z,36.01
2022-08-04T14:44:03.660Z,38.09
2022-08-04T14:46:36.542Z,38.96
2022-08-04T14:49:10.489Z,37.46
2022-08-04T14:52:01.562Z,38.02
2022-08-04T14:54:33.194Z,37.33
2022-08-04T14:57:06.144Z,38.37
2022-08-04T15:00:01.730Z,38.03
2022-08-04T15:02:30.596Z,38.99
2022-08-04T15:04:58.303Z,38.25
2022-08-04T15:07:25.502Z,39.05
2022-08-04T15:09:52.509Z,38.80
2022-08-04T15:12:20.617Z,39.23
2022-08-04T15:14:47.642Z,39.20
2022-08-04T15:17:29.309Z,39.82
2022-08-04T15:19:57.329Z,39.47
2022-08-04T15:22:24.065Z,39.36
2022-08-04T15:24:55.261Z,39.30
2022-08-04T15:27:26.748Z,39.88
2022-08-04T15:30:02.020Z,39.95
2022-08-04T15:32:34.246Z,40.36
2022-08-04T15:35:12.744Z,40.15
2022-08-04T15:37:46.338Z,39.99
2022-08-04T15:40:33.569Z,40.83
2022-08-04T15:43:00.436Z,40.33
2022-08-04T15:46:02.483Z,40.78
2022-08-04T15:48:21.764Z,40.39
2022-08-04T15:50:58.007Z,41.17
2022-08-04T15:54:02.345Z,40.94
2022-08-04T15:56:30.766Z,41.48
2022-08-04T15:58:57.705Z,42.34
2022-08-04T16:01:24.888Z,43.25
2022-08-04T16:04:00.519Z,44.51
2022-08-04T16:06:29.699Z,44.75
2022-08-04T16:09:04.690Z,44.96
2022-08-04T16:11:36.879Z,45.29
2022-08-04T16:14:03.881Z,44.92
2022-08-04T16:16:32.924Z,44.53
2022-08-04T16:19:06.344Z,44.88
2022-08-04T16:21:48.708Z,45.67
2022-08-04T16:24:36.812Z,45.89
2022-08-04T16:27:11.794Z,46.33
2022-08-04T16:29:43.237Z,47.24
2022-08-04T16:32:15.573Z,47.37
2022-08-04T16:35:17.240Z,46.81
2022-08-04T16:37:43.796Z,48.55
2022-08-04T16:40:38.103Z,47.18
2022-08-04T16:43:06.468Z,48.38
2022-08-04T16:45:48.067Z,47.80
2022-08-04T16:48:17.239Z,46.81
2022-08-04T16:50:51.239Z,48.13
2022-08-04T16:53:51.479Z,47.54
2022-08-04T16:56:07.114Z,48.26
2022-08-04T16:58:36.795Z,48.29
2022-08-04T17:01:09.303Z,48.27
2022-08-04T17:03:38.619Z,47.91
2022-08-04T17:06:14.885Z,47.66
2022-08-04T17:08:42.424Z,47.64
2022-08-04T17:11:10.135Z,48.12
2022-08-04T17:14:03.348Z,48.43
2022-08-04T17:16:34.399Z,48.28
2022-08-04T17:19:01.968Z,49.52
2022-08-04T17:21:31.650Z,49.39
2022-08-04T17:24:15.755Z,49.63
2022-08-04T17:26:51.566Z,50.39
2022-08-04T17:29:21.638Z,50.48
2022-08-04T17:31:48.331Z,50.63
2022-08-04T17:34:19.452Z,49.68
2022-08-04T17:36:47.728Z,50.71
2022-08-04T17:39:17.182Z,50.92
2022-08-04T17:41:49.232Z,50.59
2022-08-04T17:44:16.788Z,50.82
2022-08-04T17:46:48.090Z,50.79
2022-08-04T17:49:17.801Z,50.39
2022-08-04T17:52:04.698Z,51.07
2022-08-04T17:54:37.454Z,50.28
2022-08-04T17:57:21.293Z,51.56
2022-08-04T17:59:56.969Z,51.00
2022-08-04T18:02:31.926Z,51.61
2022-08-04T18:08:41.416Z,52.28
2022-08-04T18:10:56.118Z,52.30
2022-08-04T18:13:27.780Z,51.53
2022-08-04T18:16:04.416Z,51.79
2022-08-04T18:18:31.062Z,51.92
2022-08-04T18:20:59.618Z,51.52
2022-08-04T18:23:32.152Z,51.18
2022-08-04T18:26:02.098Z,52.10
2022-08-04T18:28:31.320Z,52.23
2022-08-04T18:31:01.063Z,53.61
2022-08-04T18:33:39.722Z,53.06
2022-08-04T18:36:34.558Z,52.98
2022-08-04T18:38:58.681Z,53.07
2022-08-04T18:41:27.742Z,52.50
2022-08-04T18:43:57.511Z,53.09
2022-08-04T18:46:27.150Z,53.80
2022-08-04T18:48:54.515Z,54.20
2022-08-04T18:51:24.962Z,53.53
2022-08-04T18:53:58.728Z,55.14
2022-08-04T18:56:29.969Z,55.58
2022-08-04T18:59:05.188Z,57.02
2022-08-04T19:02:12.672Z,56.98
2022-08-04T19:04:33.815Z,57.70
2022-08-04T19:07:29.263Z,58.21
2022-08-04T19:09:53.849Z,58.55
2022-08-04T19:12:26.293Z,58.98
2022-08-04T19:14:58.673Z,59.55
2022-08-04T19:17:53.702Z,60.01
2022-08-04T19:20:25.073Z,59.94
2022-08-04T19:24:23.404Z,59.76
2022-08-04T19:25:58.783Z,59.49
2022-08-04T19:28:33.928Z,60.02
2022-08-04T19:31:01.628Z,59.61
2022-08-04T19:33:28.536Z,60.18
2022-08-04T19:36:17.273Z,60.40
2022-08-04T19:38:44.708Z,60.14
2022-08-04T19:41:14.667Z,60.19
2022-08-04T19:43:43.984Z,59.78
2022-08-04T19:46:12.212Z,60.16
2022-08-04T19:48:39.863Z,59.42
2022-08-04T19:51:07.752Z,59.77
2022-08-04T19:53:37.398Z,59.89
2022-08-04T19:56:05.104Z,60.42
2022-08-04T19:58:31.685Z,59.93
2022-08-04T20:00:58.291Z,59.62
2022-08-04T20:04:08.048Z,60.24
2022-08-04T20:06:11.852Z,61.29
2022-08-04T20:08:38.465Z,61.45
2022-08-04T20:11:16.358Z,60.50
2022-08-04T20:13:45.003Z,60.89
2022-08-04T20:16:30.215Z,61.09
2022-08-04T20:19:02.882Z,61.48
2022-08-04T20:21:53.562Z,61.74
2022-08-04T20:27:09.067Z,62.14
2022-08-04T20:29:43.394Z,61.84
2022-08-04T20:32:13.421Z,62.12
2022-08-04T20:34:42.652Z,62.72
2022-08-04T20:37:10.481Z,62.38
2022-08-04T20:39:37.760Z,63.01
2022-08-04T20:42:04.564Z,62.79
2022-08-04T20:44:31.144Z,63.30
2022-08-04T20:46:57.733Z,63.00
2022-08-04T20:49:34.913Z,63.29
2022-08-04T20:52:13.348Z,63.40
2022-08-04T20:54:42.706Z,63.74
2022-08-04T20:57:16.485Z,63.46
2022-08-04T20:59:43.847Z,63.23
2022-08-04T21:02:21.068Z,63.49
2022-08-04T21:04:48.757Z,63.05
2022-08-04T21:07:16.910Z,63.23
2022-08-04T21:09:49.937Z,63.70
2022-08-04T21:12:28.464Z,62.66
2022-08-04T21:15:01.368Z,62.99
2022-08-04T21:17:58.457Z,63.35
2022-08-04T21:20:27.725Z,63.56
2022-08-04T21:22:55.000Z,63.88
2022-08-04T21:25:22.304Z,63.47
2022-08-04T21:27:49.817Z,63.57
2022-08-04T21:30:25.419Z,63.70
2022-08-04T21:32:55.311Z,64.25
2022-08-04T21:35:30.070Z,65.01
2022-08-04T21:38:17.642Z,64.73
2022-08-04T21:40:55.567Z,64.91
2022-08-04T21:43:27.411Z,64.87
2022-08-04T21:45:56.668Z,64.81
2022-08-04T21:48:27.708Z,65.33
2022-08-04T21:50:54.789Z,65.10
2022-08-04T21:53:21.508Z,65.25
2022-08-04T21:56:05.847Z,64.61
2022-08-04T21:58:36.099Z,65.03
2022-08-04T22:01:12.606Z,64.89
2022-08-04T22:03:53.506Z,65.02
2022-08-04T22:09:14.691Z,65.75
2022-08-04T22:11:50.755Z,66.07
2022-08-04T22:14:29.070Z,65.49
2022-08-04T22:16:56.673Z,65.50
2022-08-04T22:19:39.554Z,65.05
2022-08-04T22:22:12.626Z,65.62
2022-08-04T22:24:51.813Z,65.75
2022-08-04T22:27:36.708Z,65.58
2022-08-04T22:30:09.230Z,65.65
2022-08-04T22:32:43.640Z,65.76
2022-08-04T22:35:42.854Z,64.31
2022-08-04T22:38:07.402Z,64.34
2022-08-04T22:40:38.246Z,66.52
2022-08-04T22:43:31.381Z,68.55
2022-08-04T22:45:51.644Z,68.88
2022-08-04T22:48:18.619Z,67.06
2022-08-04T22:50:45.193Z,70.01
2022-08-04T22:53:11.744Z,70.99
2022-08-04T22:56:07.655Z,69.75
2022-08-04T22:58:31.651Z,71.20
2022-08-04T23:00:58.568Z,73.24
2022-08-04T23:03:37.710Z,71.97
2022-08-04T23:06:10.788Z,70.25
2022-08-04T23:08:39.197Z,71.68
2022-08-04T23:11:10.324Z,71.07
2022-08-04T23:13:37.764Z,72.95
2022-08-04T23:16:10.214Z,73.85
2022-08-04T23:18:42.146Z,74.99
2022-08-04T23:21:11.066Z,75.85
2022-08-04T23:23:47.882Z,75.19
2022-08-04T23:26:27.799Z,74.70
2022-08-04T23:28:56.097Z,73.50
2022-08-04T23:31:23.392Z,73.71
2022-08-04T23:33:51.435Z,73.98
2022-08-04T23:36:29.885Z,72.51
2022-08-04T23:39:05.552Z,74.82
2022-08-04T23:41:53.319Z,74.69
2022-08-04T23:44:24.288Z,74.61
2022-08-04T23:47:00.823Z,73.88
2022-08-04T23:49:44.197Z,73.09
2022-08-04T23:52:28.066Z,73.88
2022-08-04T23:54:58.171Z,74.35
2022-08-04T23:57:25.160Z,75.09
2022-08-04T23:59:58.666Z,75.57
